Weather observations for the past three days for
Beaufort Smith Field
| Date | Time (edt) | Wind (kph) | Vis. (km) | Weather | Sky Cond. | Temperature (ºC) | Relative Humidity | Wind Chill (°C) | Heat Index (°C) | Pressure | Precipitation (cm) | ||||||
|---|---|---|---|---|---|---|---|---|---|---|---|---|---|---|---|---|---|
| Air | Dwpt | 6 hour | altimeter (cm) | sea level (mb) | 1 hr | 3 hr | 6 hr | ||||||||||
| Max. | Min. | ||||||||||||||||
| 02 | 02:58 | SW 11 | 16.09 | Fair | CLR | 27.2 | 24.4 | 85% | 31 | 76.35 | 1017.8 | ||||||
| 02 | 01:58 | SW 11 | 16.09 | Fair | CLR | 26.7 | 23.9 | 27.2 | 26.7 | 85% | 29 | 76.35 | 1018.0 | ||||
| 02 | 00:58 | SW 11 | 16.09 | Fair | CLR | 27.2 | 24.4 | 85% | 31 | 76.35 | 1017.9 | ||||||
| 01 | 23:58 | SW 13 | 16.09 | Fair | CLR | 27.2 | 23.9 | 82% | 30 | 76.33 | 1017.5 | ||||||
| 01 | 22:58 | S 15 | 16.09 | Fair | CLR | 27.2 | 23.9 | 82% | 30 | 76.3 | 1017.1 | ||||||
| 01 | 21:58 | S 13 | 16.09 | Fair | CLR | 27.2 | 23.9 | 82% | 30 | 76.28 | 1017.0 | ||||||
| 01 | 20:58 | S 15 | 16.09 | Fair | CLR | 27.2 | 23.3 | 79% | 30 | 76.3 | 1017.1 | ||||||
| 01 | 19:58 | S 13 | 16.09 | Fair | CLR | 27.2 | 23.3 | 30.6 | 27.2 | 79% | 30 | 76.3 | 1017.1 | ||||
| 01 | 18:58 | S 15 | 16.09 | Fair | CLR | 28.3 | 23.9 | 77% | 32 | 76.3 | 1017.2 | ||||||
| 01 | 17:58 | S 15 | 16.09 | Fair | CLR | 28.9 | 23.3 | 72% | 33 | 76.3 | 1017.3 | ||||||
| 01 | 16:58 | S 19 | 16.09 | Fair | CLR | 29.4 | 23.3 | 70% | 34 | 76.3 | 1017.3 | ||||||
| 01 | 15:58 | S 17 | 16.09 | Fair | CLR | 30 | 22.2 | 63% | 33 | 76.33 | 1017.5 | ||||||
| 01 | 14:58 | S 15 | 16.09 | Fair | CLR | 30 | 22.8 | 65% | 34 | 76.35 | 1017.9 | ||||||
| 01 | 13:58 | S 13 | 16.09 | Fair | CLR | 30 | 23.3 | 31.1 | 25.6 | 67% | 34 | 76.38 | 1018.1 | ||||
| 01 | 12:58 | S 13 | 16.09 | Fair | CLR | 29.4 | 23.3 | 70% | 34 | 76.4 | 1018.5 | ||||||
| 01 | 11:58 | Vrbl 6 | 16.09 | Fair | CLR | 30.6 | 22.8 | 63% | 35 | 76.4 | 1018.7 | ||||||
| 01 | 10:58 | NW 9 | 16.09 | Fair | CLR | 28.9 | 22.8 | 70% | 32 | 76.45 | 1019.2 | ||||||
| 01 | 09:58 | NW 9 | 16.09 | Fair | CLR | 26.7 | 24.4 | 87% | 30 | 76.45 | 1019.2 | ||||||
| 01 | 08:58 | NW 7 | 16.09 | Fair | CLR | 26.1 | 25 | 94% | 28 | 76.43 | 1019.0 | ||||||
| 01 | 07:58 | Calm | 16.09 | Fair | CLR | 25.6 | 24.4 | 25.6 | 22.8 | 93% | 27 | 76.43 | 1018.8 | ||||
| 01 | 06:58 | Calm | 16.09 | Fair | CLR | 23.3 | 23.3 | 100% | 76.38 | 1018.3 | |||||||
| 01 | 05:58 | Calm | 14.48 | Fair | CLR | 23.3 | 23.3 | 100% | 76.35 | 1018.0 | |||||||
| 01 | 04:58 | Calm | 2.82 | Fog/Mist | CLR | 22.8 | 22.8 | 100% | 76.35 | 1017.9 | |||||||
| 01 | 03:58 | Calm | 16.09 | Fair | CLR | 23.9 | 23.3 | 96% | 23 | 76.38 | 1018.2 | ||||||
| 01 | 02:58 | Calm | 16.09 | A Few Clouds | FEW014 | 24.4 | 23.3 | 94% | 24 | 76.38 | 1018.1 | ||||||
| 01 | 01:58 | Calm | 16.09 | A Few Clouds | FEW016 | 24.4 | 23.3 | 27.2 | 23.3 | 94% | 24 | 76.4 | 1018.5 | ||||
| 01 | 00:58 | Calm | 16.09 | Fair | CLR | 24.4 | 23.3 | 94% | 24 | 76.43 | 1019.0 | ||||||
| 31 | 23:58 | Calm | 16.09 | Fair | CLR | 24.4 | 23.3 | 94% | 24 | 76.43 | 1019.0 | ||||||
| 31 | 22:58 | Calm | 16.09 | Fair | CLR | 25 | 23.3 | 90% | 26 | 76.43 | 1019.0 | ||||||
| 31 | 21:58 | SE 6 | 16.09 | Fair | CLR | 25.6 | 23.3 | 87% | 27 | 76.43 | 1018.9 | ||||||
| 31 | 20:58 | SE 7 | 16.09 | Fair | CLR | 26.7 | 23.9 | 85% | 29 | 76.4 | 1018.4 | ||||||
| 31 | 18:58 | SE 7 | 16.09 | Fair | CLR | 28.3 | 22.2 | 70% | 31 | 76.38 | 1018.4 | ||||||
| 31 | 17:58 | SE 13 | 16.09 | Fair | CLR | 28.9 | 23.3 | 72% | 33 | 76.38 | 1018.3 | ||||||
| 31 | 16:58 | Vrbl 7 | 16.09 | Fair | CLR | 29.4 | 23.9 | 72% | 34 | 76.38 | 1018.1 | ||||||
| 31 | 15:58 | E 13 | 16.09 | A Few Clouds | FEW020 | 29.4 | 23.9 | 72% | 34 | 76.4 | 1018.5 | ||||||
| 31 | 14:58 | SE 11 | 16.09 | Fair | CLR | 29.4 | 25 | 77% | 35 | 76.43 | 1019.1 | ||||||
| 31 | 13:58 | E 13 | 3.22 | Heavy Rain | FEW019 BKN033 OVC075 | 27.2 | 23.9 | 30.6 | 24.4 | 82% | 30 | 76.48 | 1019.5 | ||||
| 31 | 12:58 | SE 9 | 16.09 | A Few Clouds | FEW032 | 29.4 | 22.2 | 65% | 33 | 76.48 | 1019.8 | ||||||
| 31 | 11:58 | E 7 | 16.09 | Partly Cloudy | SCT026 | 30 | 23.3 | 67% | 34 | 76.53 | 1020.2 | ||||||
| 31 | 10:58 | NW 7 | 16.09 | Partly Cloudy | SCT021 | 28.3 | 23.3 | 74% | 32 | 76.5 | 1020.0 | ||||||
| 31 | 09:58 | N 7 | 16.09 | Fair | CLR | 26.1 | 23.3 | 85% | 28 | 76.48 | 1019.7 | ||||||
| 31 | 08:58 | N 7 | 16.09 | Fair | CLR | 25.6 | 24.4 | 93% | 27 | 76.45 | 1019.4 | ||||||
| 31 | 07:58 | Calm | 12.87 | Mostly Cloudy | BKN002 | 24.4 | 23.9 | 24.4 | 22.8 | 97% | 24 | 76.45 | 1019.2 | ||||
| 31 | 06:58 | N 6 | 11.27 | Fair | CLR | 23.3 | 22.8 | 97% | 76.48 | 1019.5 | |||||||
| 31 | 05:58 | N 6 | 16.09 | Fair | CLR | 23.9 | 23.3 | 96% | 23 | 76.43 | 1019.1 | ||||||
| 31 | 04:58 | N 6 | 16.09 | Fair | CLR | 23.3 | 22.8 | 97% | 76.4 | 1018.6 | |||||||
| 31 | 03:58 | Calm | 16.09 | Fair | CLR | 23.9 | 23.3 | 96% | 23 | 76.4 | 1018.5 | ||||||
| 31 | 02:58 | Calm | 14.48 | Fair | CLR | 23.3 | 22.8 | 97% | 76.43 | 1018.9 | |||||||
| 31 | 01:58 | Calm | 16.09 | Fair | CLR | 23.9 | 23.3 | 25.6 | 23.9 | 96% | 23 | 76.48 | 1019.7 | ||||
| 31 | 00:58 | Calm | 16.09 | Fair | CLR | 23.9 | 23.3 | 96% | 23 | 76.5 | 1019.9 | ||||||
| 30 | 23:58 | Calm | 16.09 | Fair | CLR | 24.4 | 23.9 | 97% | 24 | 76.5 | 1019.9 | ||||||
| 30 | 22:58 | Calm | 16.09 | Fair | CLR | 24.4 | 23.3 | 94% | 24 | 76.5 | 1019.9 | ||||||
| 30 | 21:58 | NE 6 | 16.09 | Fair | CLR | 24.4 | 23.3 | 94% | 24 | 76.5 | 1020.0 | ||||||
| 30 | 20:58 | E 11 | 16.09 | Partly Cloudy | SCT019 | 25 | 23.3 | 90% | 26 | 76.5 | 1019.8 | ||||||
| 30 | 19:58 | N 9 | 16.09 | Mostly Cloudy | BKN018 | 24.4 | 23.3 | 30 | 24.4 | 94% | 24 | 76.48 | 1019.6 | ||||
| 30 | 18:58 | N 7 | 16.09 | Partly Cloudy | SCT046 | 25 | 22.8 | 88% | 26 | 76.48 | 1019.6 | ||||||
| 30 | 17:58 | N 9 | 16.09 | Overcast | BKN020 OVC029 | 26.7 | 23.3 | 82% | 29 | 76.53 | 1020.3 | ||||||
| 30 | 16:58 | NW 6 | 16.09 | Thunderstorm in Vicinity | CLR | 27.2 | 23.3 | 79% | 30 | 76.53 | 1020.4 | ||||||
| 30 | 15:58 | SE 11 | 16.09 | Thunderstorm in Vicinity | BKN070 BKN120 | 28.9 | 23.3 | 72% | 33 | 76.56 | 1020.7 | ||||||
| 30 | 14:58 | SE 17 | 16.09 | Fair | CLR | 29.4 | 23.9 | 72% | 34 | 76.5 | 1020.1 | ||||||
| 30 | 13:58 | E 7 | 16.09 | Overcast | SCT024 BKN048 OVC070 | 28.9 | 23.3 | 30 | 24.4 | 72% | 33 | 76.56 | 1020.6 | ||||
| 30 | 12:58 | SW 9 | 16.09 | Overcast | OVC027 | 29.4 | 23.9 | 72% | 34 | 76.58 | 1021.0 | ||||||
| 30 | 11:58 | Calm | 16.09 | Fair | CLR | 30 | 23.3 | 67% | 34 | 76.63 | 1021.6 | ||||||
| 30 | 10:58 | Vrbl 6 | 16.09 | Fair | CLR | 28.9 | 22.2 | 67% | 32 | 76.63 | 1021.8 | ||||||
| 30 | 09:58 | NE 9 | 16.09 | A Few Clouds | FEW017 | 28.3 | 23.9 | 77% | 32 | 76.66 | 1022.0 | ||||||
| 30 | 08:58 | Vrbl 6 | 16.09 | Fair | CLR | 26.1 | 24.4 | 90% | 28 | 76.63 | 1021.7 | ||||||
| 30 | 07:58 | NE 6 | 16.09 | Fair | CLR | 24.4 | 23.9 | 24.4 | 23.3 | 97% | 24 | 76.63 | 1021.7 | ||||
| 30 | 06:58 | Calm | 16.09 | Fair | CLR | 23.9 | 23.3 | 96% | 23 | 76.63 | 1021.8 | ||||||
| 30 | 05:58 | NE 7 | 16.09 | Mostly Cloudy | BKN080 | 23.9 | 22.8 | 94% | 23 | 76.63 | 1021.6 | ||||||
| 30 | 04:58 | NE 7 | 16.09 | Fair | CLR | 23.9 | 22.8 | 94% | 23 | 76.58 | 1021.1 | ||||||
| 30 | 03:58 | Calm | 16.09 | Fair | CLR | 23.3 | 22.8 | 97% | 76.58 | 1020.9 | |||||||
| Date | Time (edt) | Wind (kph) | Vis. (km) | Weather | Sky Cond. | Air | Dwpt | Max. | Min. | Relative Humidity | Wind Chill (°C) | Heat Index (°C) | altimeter (cm) | sea level (mb) | 1 hr | 3 hr | 6 hr |
| 6 hour | |||||||||||||||||
| Temperature (ºC) | Pressure | Precipitation (cm) | |||||||||||||||